sensor_id;sensor_type;location;lat;lon;timestamp;pressure;altitude;pressure_sealevel;temperature;humidity
20009;BME280;10165;42.662;23.260;2022-11-15T00:00:52;94711.53;;;9.03;61.42
20009;BME280;10165;42.662;23.260;2022-11-15T00:03:22;94704.66;;;9.02;61.45
20009;BME280;10165;42.662;23.260;2022-11-15T00:05:49;94707.59;;;9.09;60.87
20009;BME280;10165;42.662;23.260;2022-11-15T00:08:16;94700.09;;;9.02;61.48
20009;BME280;10165;42.662;23.260;2022-11-15T00:10:54;94702.47;;;9.04;60.63
20009;BME280;10165;42.662;23.260;2022-11-15T00:13:20;94695.41;;;8.99;61.30
20009;BME280;10165;42.662;23.260;2022-11-15T00:15:47;94689.13;;;9.04;61.25
20009;BME280;10165;42.662;23.260;2022-11-15T00:18:14;94694.69;;;8.82;61.47
20009;BME280;10165;42.662;23.260;2022-11-15T00:20:41;94693.19;;;9.01;61.42
20009;BME280;10165;42.662;23.260;2022-11-15T00:23:08;94688.53;;;8.90;61.80
20009;BME280;10165;42.662;23.260;2022-11-15T00:25:35;94687.09;;;9.01;61.49
20009;BME280;10165;42.662;23.260;2022-11-15T00:28:02;94681.47;;;8.94;61.57
20009;BME280;10165;42.662;23.260;2022-11-15T00:30:29;94670.34;;;9.00;61.26
20009;BME280;10165;42.662;23.260;2022-11-15T00:32:56;94675.59;;;8.71;61.50
20009;BME280;10165;42.662;23.260;2022-11-15T00:35:23;94680.69;;;8.93;61.05
20009;BME280;10165;42.662;23.260;2022-11-15T00:37:52;94679.84;;;8.72;61.42
20009;BME280;10165;42.662;23.260;2022-11-15T00:40:18;94682.78;;;8.79;60.88
20009;BME280;10165;42.662;23.260;2022-11-15T00:42:45;94679.63;;;8.86;60.66
20009;BME280;10165;42.662;23.260;2022-11-15T00:45:12;94668.91;;;8.65;61.48
20009;BME280;10165;42.662;23.260;2022-11-15T00:47:38;94675.00;;;8.66;61.26
20009;BME280;10165;42.662;23.260;2022-11-15T00:50:05;94674.66;;;8.67;61.59
20009;BME280;10165;42.662;23.260;2022-11-15T00:52:32;94672.81;;;8.59;62.12
20009;BME280;10165;42.662;23.260;2022-11-15T00:54:58;94675.78;;;8.66;61.68
20009;BME280;10165;42.662;23.260;2022-11-15T00:57:25;94671.84;;;8.72;61.80
20009;BME280;10165;42.662;23.260;2022-11-15T00:59:52;94668.50;;;8.84;61.37
20009;BME280;10165;42.662;23.260;2022-11-15T01:02:19;94670.34;;;8.45;61.59
20009;BME280;10165;42.662;23.260;2022-11-15T01:04:45;94663.75;;;8.51;62.10
20009;BME280;10165;42.662;23.260;2022-11-15T01:07:12;94661.56;;;8.53;62.13
20009;BME280;10165;42.662;23.260;2022-11-15T01:09:39;94664.81;;;8.59;61.62
20009;BME280;10165;42.662;23.260;2022-11-15T01:12:06;94658.13;;;8.44;61.48
20009;BME280;10165;42.662;23.260;2022-11-15T01:14:32;94668.91;;;8.65;61.34
20009;BME280;10165;42.662;23.260;2022-11-15T01:16:59;94662.47;;;8.66;60.99
20009;BME280;10165;42.662;23.260;2022-11-15T01:19:26;94663.28;;;8.58;61.41
20009;BME280;10165;42.662;23.260;2022-11-15T01:21:52;94670.47;;;8.66;61.64
20009;BME280;10165;42.662;23.260;2022-11-15T01:24:19;94659.84;;;8.49;62.09
20009;BME280;10165;42.662;23.260;2022-11-15T01:26:46;94664.81;;;8.59;61.80
20009;BME280;10165;42.662;23.260;2022-11-15T01:29:12;94662.81;;;8.47;61.88
20009;BME280;10165;42.662;23.260;2022-11-15T01:31:39;94651.56;;;8.33;62.22
20009;BME280;10165;42.662;23.260;2022-11-15T01:34:05;94657.03;;;8.37;61.94
20009;BME280;10165;42.662;23.260;2022-11-15T01:36:32;94655.00;;;8.42;62.26
20009;BME280;10165;42.662;23.260;2022-11-15T01:38:59;94656.06;;;8.58;61.94
20009;BME280;10165;42.662;23.260;2022-11-15T01:41:32;94649.16;;;8.66;61.23
20009;BME280;10165;42.662;23.260;2022-11-15T01:46:59;94647.88;;;8.72;61.32
20009;BME280;10165;42.662;23.260;2022-11-15T01:49:31;94650.50;;;8.81;61.36
20009;BME280;10165;42.662;23.260;2022-11-15T01:52:01;94649.44;;;8.73;61.45
20009;BME280;10165;42.662;23.260;2022-11-15T01:54:30;94646.94;;;8.68;61.62
20009;BME280;10165;42.662;23.260;2022-11-15T01:57:05;94640.84;;;8.59;61.77
20009;BME280;10165;42.662;23.260;2022-11-15T01:59:33;94649.72;;;8.80;61.33
20009;BME280;10165;42.662;23.260;2022-11-15T02:02:00;94637.38;;;8.76;61.17
20009;BME280;10165;42.662;23.260;2022-11-15T02:04:37;94645.53;;;8.71;61.11
20009;BME280;10165;42.662;23.260;2022-11-15T02:07:08;94639.63;;;8.56;61.84
20009;BME280;10165;42.662;23.260;2022-11-15T02:09:37;94650.44;;;8.51;61.84
20009;BME280;10165;42.662;23.260;2022-11-15T02:12:04;94642.59;;;8.55;61.63
20009;BME280;10165;42.662;23.260;2022-11-15T02:14:33;94646.97;;;8.59;61.29
20009;BME280;10165;42.662;23.260;2022-11-15T02:22:37;94643.59;;;8.42;61.28
20009;BME280;10165;42.662;23.260;2022-11-15T02:41:15;94639.34;;;8.41;62.03
20009;BME280;10165;42.662;23.260;2022-11-15T02:46:33;94635.25;;;8.43;61.69
20009;BME280;10165;42.662;23.260;2022-11-15T02:49:21;94629.94;;;8.43;61.91
20009;BME280;10165;42.662;23.260;2022-11-15T02:51:50;94633.50;;;8.56;61.52
20009;BME280;10165;42.662;23.260;2022-11-15T02:54:25;94632.25;;;8.62;61.09
20009;BME280;10165;42.662;23.260;2022-11-15T02:56:54;94627.75;;;8.54;61.27
20009;BME280;10165;42.662;23.260;2022-11-15T02:59:35;94639.03;;;8.25;61.59
20009;BME280;10165;42.662;23.260;2022-11-15T03:05:03;94652.22;;;7.61;62.97
20009;BME280;10165;42.662;23.260;2022-11-15T03:10:45;94648.44;;;8.05;62.89
20009;BME280;10165;42.662;23.260;2022-11-15T03:13:28;94638.13;;;7.95;63.24
20009;BME280;10165;42.662;23.260;2022-11-15T03:18:34;94635.78;;;8.02;63.97
20009;BME280;10165;42.662;23.260;2022-11-15T03:21:05;94627.50;;;8.12;63.64
20009;BME280;10165;42.662;23.260;2022-11-15T03:23:34;94629.50;;;8.41;63.29
20009;BME280;10165;42.662;23.260;2022-11-15T03:26:05;94625.44;;;8.27;63.93
20009;BME280;10165;42.662;23.260;2022-11-15T03:28:37;94622.94;;;8.39;63.96
20009;BME280;10165;42.662;23.260;2022-11-15T03:31:05;94624.03;;;8.29;65.06
20009;BME280;10165;42.662;23.260;2022-11-15T03:33:55;94621.19;;;8.43;63.94
20009;BME280;10165;42.662;23.260;2022-11-15T03:36:24;94616.47;;;8.48;63.98
20009;BME280;10165;42.662;23.260;2022-11-15T03:38:54;94614.44;;;8.28;64.24
20009;BME280;10165;42.662;23.260;2022-11-15T03:41:31;94614.94;;;8.22;64.75
20009;BME280;10165;42.662;23.260;2022-11-15T03:44:10;94617.31;;;8.14;64.55
20009;BME280;10165;42.662;23.260;2022-11-15T03:46:46;94614.31;;;8.33;64.20
20009;BME280;10165;42.662;23.260;2022-11-15T03:49:19;94612.63;;;8.03;65.51
20009;BME280;10165;42.662;23.260;2022-11-15T03:51:48;94612.19;;;7.75;66.12
20009;BME280;10165;42.662;23.260;2022-11-15T03:54:15;94605.91;;;7.45;67.66
20009;BME280;10165;42.662;23.260;2022-11-15T03:56:42;94604.03;;;7.29;68.34
20009;BME280;10165;42.662;23.260;2022-11-15T03:59:08;94601.84;;;7.31;68.73
20009;BME280;10165;42.662;23.260;2022-11-15T04:01:36;94605.91;;;7.19;69.54
20009;BME280;10165;42.662;23.260;2022-11-15T04:04:03;94600.91;;;7.27;70.18
20009;BME280;10165;42.662;23.260;2022-11-15T04:06:29;94605.00;;;7.50;69.84
20009;BME280;10165;42.662;23.260;2022-11-15T04:08:56;94603.25;;;7.80;69.27
20009;BME280;10165;42.662;23.260;2022-11-15T04:11:23;94594.63;;;8.08;68.33
20009;BME280;10165;42.662;23.260;2022-11-15T04:13:49;94594.31;;;8.10;68.36
20009;BME280;10165;42.662;23.260;2022-11-15T04:16:16;94596.53;;;7.99;68.48
20009;BME280;10165;42.662;23.260;2022-11-15T04:18:42;94588.38;;;7.96;68.28
20009;BME280;10165;42.662;23.260;2022-11-15T04:21:09;94591.22;;;7.74;69.51
20009;BME280;10165;42.662;23.260;2022-11-15T04:23:55;94599.53;;;7.46;69.76
20009;BME280;10165;42.662;23.260;2022-11-15T04:26:40;94591.38;;;7.51;69.79
20009;BME280;10165;42.662;23.260;2022-11-15T04:29:06;94595.59;;;7.61;69.30
20009;BME280;10165;42.662;23.260;2022-11-15T04:32:06;94590.94;;;6.76;71.57
20009;BME280;10165;42.662;23.260;2022-11-15T04:34:33;94593.38;;;7.11;70.83
20009;BME280;10165;42.662;23.260;2022-11-15T04:37:00;94591.53;;;7.20;70.29
20009;BME280;10165;42.662;23.260;2022-11-15T04:39:40;94594.38;;;7.58;69.17
20009;BME280;10165;42.662;23.260;2022-11-15T04:42:07;94589.97;;;7.54;68.98
20009;BME280;10165;42.662;23.260;2022-11-15T04:44:37;94595.41;;;7.14;69.05
20009;BME280;10165;42.662;23.260;2022-11-15T04:47:03;94595.25;;;7.11;70.41
20009;BME280;10165;42.662;23.260;2022-11-15T04:49:30;94601.81;;;7.22;70.29
20009;BME280;10165;42.662;23.260;2022-11-15T04:51:57;94590.91;;;7.24;70.31
20009;BME280;10165;42.662;23.260;2022-11-15T04:54:24;94602.00;;;7.26;70.59
20009;BME280;10165;42.662;23.260;2022-11-15T04:56:50;94603.22;;;7.11;70.74
20009;BME280;10165;42.662;23.260;2022-11-15T04:59:17;94594.97;;;7.12;71.39
20009;BME280;10165;42.662;23.260;2022-11-15T05:01:44;94606.53;;;7.16;71.24
20009;BME280;10165;42.662;23.260;2022-11-15T05:04:18;94599.78;;;7.10;71.33
20009;BME280;10165;42.662;23.260;2022-11-15T05:06:49;94602.44;;;7.10;71.76
20009;BME280;10165;42.662;23.260;2022-11-15T05:09:23;94599.47;;;7.03;71.43
20009;BME280;10165;42.662;23.260;2022-11-15T05:11:50;94601.31;;;7.03;72.04
20009;BME280;10165;42.662;23.260;2022-11-15T05:14:24;94599.41;;;6.86;72.66
20009;BME280;10165;42.662;23.260;2022-11-15T05:16:50;94600.34;;;6.90;72.35
20009;BME280;10165;42.662;23.260;2022-11-15T05:19:17;94602.72;;;6.92;72.35
20009;BME280;10165;42.662;23.260;2022-11-15T05:21:44;94596.66;;;7.08;72.04
20009;BME280;10165;42.662;23.260;2022-11-15T05:24:10;94594.34;;;7.15;72.06
20009;BME280;10165;42.662;23.260;2022-11-15T05:26:37;94591.38;;;7.26;71.71
20009;BME280;10165;42.662;23.260;2022-11-15T05:29:04;94593.72;;;7.27;72.08
20009;BME280;10165;42.662;23.260;2022-11-15T05:31:30;94595.09;;;7.25;72.44
20009;BME280;10165;42.662;23.260;2022-11-15T05:34:04;94590.59;;;7.42;72.21
20009;BME280;10165;42.662;23.260;2022-11-15T05:36:45;94590.13;;;7.49;71.53
20009;BME280;10165;42.662;23.260;2022-11-15T05:39:12;94593.88;;;7.65;71.96
20009;BME280;10165;42.662;23.260;2022-11-15T05:41:48;94593.59;;;7.58;71.46
20009;BME280;10165;42.662;23.260;2022-11-15T05:44:21;94589.66;;;7.64;72.18
20009;BME280;10165;42.662;23.260;2022-11-15T05:46:50;94583.56;;;7.89;71.41
20009;BME280;10165;42.662;23.260;2022-11-15T05:49:22;94588.09;;;7.80;71.20
20009;BME280;10165;42.662;23.260;2022-11-15T05:51:50;94592.47;;;7.76;71.53
20009;BME280;10165;42.662;23.260;2022-11-15T05:54:19;94601.84;;;7.82;71.32
20009;BME280;10165;42.662;23.260;2022-11-15T05:56:48;94607.34;;;7.77;71.15
20009;BME280;10165;42.662;23.260;2022-11-15T05:59:15;94598.88;;;7.75;71.28
20009;BME280;10165;42.662;23.260;2022-11-15T06:01:43;94602.31;;;7.67;70.64
20009;BME280;10165;42.662;23.260;2022-11-15T06:04:10;94602.00;;;7.60;70.82
20009;BME280;10165;42.662;23.260;2022-11-15T06:06:36;94607.03;;;7.53;71.07
20009;BME280;10165;42.662;23.260;2022-11-15T06:09:03;94606.22;;;7.35;71.62
20009;BME280;10165;42.662;23.260;2022-11-15T06:11:29;94605.63;;;7.47;71.51
20009;BME280;10165;42.662;23.260;2022-11-15T06:13:56;94608.41;;;7.33;72.02
20009;BME280;10165;42.662;23.260;2022-11-15T06:16:22;94607.78;;;7.45;71.94
20009;BME280;10165;42.662;23.260;2022-11-15T06:18:49;94604.34;;;7.44;72.22
20009;BME280;10165;42.662;23.260;2022-11-15T06:21:16;94607.50;;;7.55;71.95
20009;BME280;10165;42.662;23.260;2022-11-15T06:23:42;94613.59;;;7.64;71.55
20009;BME280;10165;42.662;23.260;2022-11-15T06:26:09;94608.44;;;7.76;71.48
20009;BME280;10165;42.662;23.260;2022-11-15T06:28:35;94599.78;;;8.13;69.90
20009;BME280;10165;42.662;23.260;2022-11-15T06:31:07;94605.31;;;7.65;70.92
20009;BME280;10165;42.662;23.260;2022-11-15T06:33:35;94604.97;;;7.76;70.93
20009;BME280;10165;42.662;23.260;2022-11-15T06:36:07;94599.81;;;7.96;70.03
20009;BME280;10165;42.662;23.260;2022-11-15T06:38:39;94593.88;;;7.91;70.33
20009;BME280;10165;42.662;23.260;2022-11-15T06:41:08;94596.56;;;7.74;71.17
20009;BME280;10165;42.662;23.260;2022-11-15T06:43:36;94593.41;;;7.72;71.50
20009;BME280;10165;42.662;23.260;2022-11-15T06:46:03;94600.75;;;7.49;72.12
20009;BME280;10165;42.662;23.260;2022-11-15T06:48:32;94598.59;;;7.51;71.66
20009;BME280;10165;42.662;23.260;2022-11-15T06:51:00;94596.56;;;7.39;71.86
20009;BME280;10165;42.662;23.260;2022-11-15T06:53:28;94598.91;;;7.58;71.41
20009;BME280;10165;42.662;23.260;2022-11-15T06:56:04;94600.91;;;7.52;71.34
20009;BME280;10165;42.662;23.260;2022-11-15T06:58:31;94597.81;;;7.50;72.20
20009;BME280;10165;42.662;23.260;2022-11-15T07:01:01;94594.50;;;7.28;72.62
20009;BME280;10165;42.662;23.260;2022-11-15T07:03:28;94593.25;;;7.59;72.49
20009;BME280;10165;42.662;23.260;2022-11-15T07:05:56;94588.56;;;7.74;71.65
20009;BME280;10165;42.662;23.260;2022-11-15T07:08:32;94593.84;;;7.99;71.30
20009;BME280;10165;42.662;23.260;2022-11-15T07:11:00;94583.38;;;7.94;69.63
20009;BME280;10165;42.662;23.260;2022-11-15T07:13:29;94588.50;;;8.16;70.18
20009;BME280;10165;42.662;23.260;2022-11-15T07:16:05;94588.25;;;7.58;70.70
20009;BME280;10165;42.662;23.260;2022-11-15T07:18:36;94596.84;;;7.29;72.04
20009;BME280;10165;42.662;23.260;2022-11-15T07:21:05;94593.75;;;7.61;71.73
20009;BME280;10165;42.662;23.260;2022-11-15T07:23:32;94596.88;;;7.55;71.97
20009;BME280;10165;42.662;23.260;2022-11-15T07:25:59;94593.25;;;7.68;72.59
20009;BME280;10165;42.662;23.260;2022-11-15T07:28:28;94596.38;;;7.87;70.73
20009;BME280;10165;42.662;23.260;2022-11-15T07:30:54;94594.63;;;8.08;71.10
20009;BME280;10165;42.662;23.260;2022-11-15T07:33:21;94593.06;;;8.16;71.04
20009;BME280;10165;42.662;23.260;2022-11-15T07:35:48;94594.78;;;8.03;70.81
20009;BME280;10165;42.662;23.260;2022-11-15T07:38:15;94591.38;;;7.77;72.03
20009;BME280;10165;42.662;23.260;2022-11-15T07:40:46;94595.13;;;7.93;72.64
20009;BME280;10165;42.662;23.260;2022-11-15T07:43:13;94599.66;;;7.84;71.51
20009;BME280;10165;42.662;23.260;2022-11-15T07:45:44;94591.34;;;7.94;71.39
20009;BME280;10165;42.662;23.260;2022-11-15T07:48:11;94588.41;;;7.79;71.72
20009;BME280;10165;42.662;23.260;2022-11-15T07:50:41;94590.72;;;8.06;71.57
20009;BME280;10165;42.662;23.260;2022-11-15T07:53:09;94590.59;;;7.77;71.80
20009;BME280;10165;42.662;23.260;2022-11-15T07:55:37;94584.59;;;8.14;71.09
20009;BME280;10165;42.662;23.260;2022-11-15T07:58:08;94591.78;;;8.31;70.85
20009;BME280;10165;42.662;23.260;2022-11-15T08:00:36;94590.50;;;8.28;70.67
20009;BME280;10165;42.662;23.260;2022-11-15T08:03:07;94586.63;;;8.17;70.59
20009;BME280;10165;42.662;23.260;2022-11-15T08:05:35;94580.91;;;8.53;70.08
20009;BME280;10165;42.662;23.260;2022-11-15T08:08:03;94590.91;;;8.56;69.39
20009;BME280;10165;42.662;23.260;2022-11-15T08:10:29;94584.91;;;8.30;70.22
20009;BME280;10165;42.662;23.260;2022-11-15T08:13:02;94582.06;;;8.35;70.26
20009;BME280;10165;42.662;23.260;2022-11-15T08:15:30;94580.34;;;8.22;69.80
20009;BME280;10165;42.662;23.260;2022-11-15T08:17:58;94584.94;;;7.78;71.38
20009;BME280;10165;42.662;23.260;2022-11-15T08:20:27;94583.06;;;8.04;71.90
20009;BME280;10165;42.662;23.260;2022-11-15T08:22:59;94579.47;;;8.00;71.22
20009;BME280;10165;42.662;23.260;2022-11-15T08:25:28;94578.03;;;8.20;70.96
20009;BME280;10165;42.662;23.260;2022-11-15T08:27:57;94574.28;;;8.04;70.54
20009;BME280;10165;42.662;23.260;2022-11-15T08:30:25;94575.25;;;7.91;71.76
20009;BME280;10165;42.662;23.260;2022-11-15T08:32:52;94572.28;;;7.84;72.25
20009;BME280;10165;42.662;23.260;2022-11-15T08:35:20;94568.88;;;8.47;70.69
20009;BME280;10165;42.662;23.260;2022-11-15T08:37:54;94564.44;;;8.59;69.02
20009;BME280;10165;42.662;23.260;2022-11-15T08:40:21;94562.66;;;8.72;68.60
20009;BME280;10165;42.662;23.260;2022-11-15T08:42:49;94567.63;;;8.44;69.21
20009;BME280;10165;42.662;23.260;2022-11-15T08:45:15;94560.50;;;8.19;70.20
20009;BME280;10165;42.662;23.260;2022-11-15T08:47:42;94558.56;;;8.37;70.72
20009;BME280;10165;42.662;23.260;2022-11-15T08:50:09;94564.06;;;8.32;70.57
20009;BME280;10165;42.662;23.260;2022-11-15T08:52:36;94558.56;;;9.04;69.16
20009;BME280;10165;42.662;23.260;2022-11-15T08:55:03;94556.25;;;9.23;67.68
20009;BME280;10165;42.662;23.260;2022-11-15T08:57:29;94552.84;;;9.14;67.48
20009;BME280;10165;42.662;23.260;2022-11-15T08:59:59;94548.84;;;9.08;67.80
20009;BME280;10165;42.662;23.260;2022-11-15T09:02:26;94548.91;;;8.24;70.65
20009;BME280;10165;42.662;23.260;2022-11-15T09:04:52;94541.81;;;9.03;68.92
20009;BME280;10165;42.662;23.260;2022-11-15T09:07:19;94536.59;;;9.07;68.73
20009;BME280;10165;42.662;23.260;2022-11-15T09:09:46;94534.16;;;8.93;68.97
20009;BME280;10165;42.662;23.260;2022-11-15T09:12:12;94529.34;;;8.66;70.37
20009;BME280;10165;42.662;23.260;2022-11-15T09:14:39;94528.13;;;8.84;69.82
20009;BME280;10165;42.662;23.260;2022-11-15T09:17:09;94537.66;;;8.56;69.82
20009;BME280;10165;42.662;23.260;2022-11-15T09:19:36;94534.09;;;8.81;69.08
20009;BME280;10165;42.662;23.260;2022-11-15T09:22:06;94519.91;;;8.69;69.29
20009;BME280;10165;42.662;23.260;2022-11-15T09:24:33;94519.75;;;8.74;69.24
20009;BME280;10165;42.662;23.260;2022-11-15T09:27:00;94511.03;;;8.56;69.97
20009;BME280;10165;42.662;23.260;2022-11-15T09:29:26;94516.03;;;8.66;69.89
20009;BME280;10165;42.662;23.260;2022-11-15T09:31:53;94506.09;;;8.75;69.51
20009;BME280;10165;42.662;23.260;2022-11-15T09:34:20;94511.38;;;8.84;71.02
20009;BME280;10165;42.662;23.260;2022-11-15T09:36:47;94500.44;;;8.97;68.81
20009;BME280;10165;42.662;23.260;2022-11-15T09:39:13;94501.75;;;9.33;68.33
20009;BME280;10165;42.662;23.260;2022-11-15T09:49:58;94494.91;;;8.82;70.00
20009;BME280;10165;42.662;23.260;2022-11-15T09:52:25;94486.34;;;8.76;69.58
20009;BME280;10165;42.662;23.260;2022-11-15T09:54:52;94492.09;;;9.07;69.75
20009;BME280;10165;42.662;23.260;2022-11-15T10:03:26;94477.03;;;9.65;66.61
20009;BME280;10165;42.662;23.260;2022-11-15T10:05:56;94456.03;;;9.76;66.86
20009;BME280;10165;42.662;23.260;2022-11-15T10:09:19;94453.28;;;9.51;66.75
20009;BME280;10165;42.662;23.260;2022-11-15T10:11:36;94454.44;;;9.09;67.69
20009;BME280;10165;42.662;23.260;2022-11-15T10:14:17;94455.22;;;9.30;67.38
20009;BME280;10165;42.662;23.260;2022-11-15T10:24:28;94444.13;;;9.61;64.99
20009;BME280;10165;42.662;23.260;2022-11-15T10:26:59;94437.75;;;9.98;64.41
20009;BME280;10165;42.662;23.260;2022-11-15T10:29:28;94440.97;;;9.59;65.93
20009;BME280;10165;42.662;23.260;2022-11-15T10:31:54;94422.50;;;9.42;66.10
20009;BME280;10165;42.662;23.260;2022-11-15T10:34:23;94430.03;;;9.07;68.24
20009;BME280;10165;42.662;23.260;2022-11-15T10:36:58;94417.72;;;9.80;65.58
20009;BME280;10165;42.662;23.260;2022-11-15T10:39:25;94416.31;;;9.50;65.13
20009;BME280;10165;42.662;23.260;2022-11-15T10:41:52;94414.81;;;9.97;64.99
20009;BME280;10165;42.662;23.260;2022-11-15T10:49:29;94396.72;;;10.03;63.92
20009;BME280;10165;42.662;23.260;2022-11-15T10:52:14;94392.94;;;9.92;64.36
20009;BME280;10165;42.662;23.260;2022-11-15T10:57:26;94393.69;;;9.68;65.25
20009;BME280;10165;42.662;23.260;2022-11-15T11:00:04;94394.03;;;9.79;65.31
20009;BME280;10165;42.662;23.260;2022-11-15T11:02:35;94378.81;;;10.52;63.12
20009;BME280;10165;42.662;23.260;2022-11-15T11:05:35;94379.91;;;10.51;63.11
20009;BME280;10165;42.662;23.260;2022-11-15T11:10:37;94380.16;;;10.34;63.49
20009;BME280;10165;42.662;23.260;2022-11-15T11:13:23;94372.09;;;10.58;63.21
20009;BME280;10165;42.662;23.260;2022-11-15T11:21:39;94347.97;;;10.54;63.03
20009;BME280;10165;42.662;23.260;2022-11-15T11:26:59;94335.75;;;10.81;62.50
20009;BME280;10165;42.662;23.260;2022-11-15T11:32:28;94328.00;;;10.76;62.43
20009;BME280;10165;42.662;23.260;2022-11-15T11:35:22;94318.25;;;10.96;62.32
20009;BME280;10165;42.662;23.260;2022-11-15T11:37:53;94312.56;;;11.13;62.27
20009;BME280;10165;42.662;23.260;2022-11-15T11:40:33;94316.81;;;11.14;61.90
20009;BME280;10165;42.662;23.260;2022-11-15T11:43:41;94311.44;;;11.42;61.34
20009;BME280;10165;42.662;23.260;2022-11-15T11:49:01;94301.84;;;11.57;61.61
20009;BME280;10165;42.662;23.260;2022-11-15T11:51:37;94291.97;;;11.73;61.06
20009;BME280;10165;42.662;23.260;2022-11-15T11:54:15;94293.50;;;11.74;60.78
20009;BME280;10165;42.662;23.260;2022-11-15T11:56:44;94280.63;;;11.79;60.43
20009;BME280;10165;42.662;23.260;2022-11-15T11:59:33;94278.97;;;11.28;61.60
20009;BME280;10165;42.662;23.260;2022-11-15T12:02:13;94270.16;;;11.43;60.96
20009;BME280;10165;42.662;23.260;2022-11-15T12:04:47;94263.34;;;11.77;60.45
20009;BME280;10165;42.662;23.260;2022-11-15T12:07:24;94266.72;;;11.89;60.19
20009;BME280;10165;42.662;23.260;2022-11-15T12:23:39;94250.94;;;11.22;60.28
20009;BME280;10165;42.662;23.260;2022-11-15T12:26:22;94238.69;;;11.52;59.80
20009;BME280;10165;42.662;23.260;2022-11-15T12:28:59;94245.44;;;11.96;58.17
20009;BME280;10165;42.662;23.260;2022-11-15T12:36:42;94223.22;;;11.61;58.40
20009;BME280;10165;42.662;23.260;2022-11-15T12:39:11;94227.91;;;11.80;58.25
20009;BME280;10165;42.662;23.260;2022-11-15T13:02:41;94204.22;;;12.17;57.02
20009;BME280;10165;42.662;23.260;2022-11-15T13:13:01;94207.88;;;11.74;57.53
20009;BME280;10165;42.662;23.260;2022-11-15T13:16:06;94192.78;;;12.01;57.36
20009;BME280;10165;42.662;23.260;2022-11-15T13:18:27;94198.16;;;11.85;57.60
20009;BME280;10165;42.662;23.260;2022-11-15T13:20:55;94196.31;;;12.05;57.30
20009;BME280;10165;42.662;23.260;2022-11-15T13:23:28;94191.66;;;12.21;56.76
20009;BME280;10165;42.662;23.260;2022-11-15T13:26:10;94189.25;;;11.96;57.19
20009;BME280;10165;42.662;23.260;2022-11-15T13:28:48;94183.63;;;12.02;56.84
20009;BME280;10165;42.662;23.260;2022-11-15T13:31:36;94186.16;;;12.14;56.82
20009;BME280;10165;42.662;23.260;2022-11-15T13:34:26;94189.00;;;12.21;56.42
20009;BME280;10165;42.662;23.260;2022-11-15T13:39:47;94183.50;;;12.33;56.33
20009;BME280;10165;42.662;23.260;2022-11-15T13:42:19;94184.63;;;12.13;56.67
20009;BME280;10165;42.662;23.260;2022-11-15T13:44:57;94181.81;;;12.25;56.27
20009;BME280;10165;42.662;23.260;2022-11-15T13:47:26;94181.47;;;12.26;56.69
20009;BME280;10165;42.662;23.260;2022-11-15T13:49:56;94182.00;;;12.16;56.78
20009;BME280;10165;42.662;23.260;2022-11-15T13:52:28;94181.75;;;12.21;56.58
20009;BME280;10165;42.662;23.260;2022-11-15T13:57:30;94168.91;;;12.30;56.14
20009;BME280;10165;42.662;23.260;2022-11-15T14:00:06;94174.19;;;12.27;56.18
20009;BME280;10165;42.662;23.260;2022-11-15T14:02:48;94171.94;;;12.29;56.60
20009;BME280;10165;42.662;23.260;2022-11-15T14:05:22;94169.47;;;12.20;56.44
20009;BME280;10165;42.662;23.260;2022-11-15T14:10:45;94178.53;;;11.96;57.60
20009;BME280;10165;42.662;23.260;2022-11-15T14:13:30;94178.19;;;11.47;58.90
20009;BME280;10165;42.662;23.260;2022-11-15T14:16:20;94177.16;;;11.52;58.79
20009;BME280;10165;42.662;23.260;2022-11-15T14:18:52;94172.91;;;11.67;58.45
20009;BME280;10165;42.662;23.260;2022-11-15T14:21:19;94165.94;;;11.97;57.78
20009;BME280;10165;42.662;23.260;2022-11-15T14:23:46;94162.91;;;11.98;57.79
20009;BME280;10165;42.662;23.260;2022-11-15T14:26:33;94161.84;;;11.84;57.86
20009;BME280;10165;42.662;23.260;2022-11-15T14:29:28;94166.34;;;11.80;57.82
20009;BME280;10165;42.662;23.260;2022-11-15T14:32:14;94165.13;;;11.77;58.10
20009;BME280;10165;42.662;23.260;2022-11-15T14:34:42;94163.03;;;11.86;58.18
20009;BME280;10165;42.662;23.260;2022-11-15T14:39:46;94167.19;;;11.84;58.12
20009;BME280;10165;42.662;23.260;2022-11-15T14:42:13;94166.19;;;11.73;58.67
20009;BME280;10165;42.662;23.260;2022-11-15T14:44:40;94162.81;;;11.76;58.40
20009;BME280;10165;42.662;23.260;2022-11-15T14:47:11;94164.47;;;11.65;58.81
20009;BME280;10165;42.662;23.260;2022-11-15T14:49:38;94171.25;;;11.62;58.87
20009;BME280;10165;42.662;23.260;2022-11-15T14:52:31;94172.63;;;11.21;59.78
20009;BME280;10165;42.662;23.260;2022-11-15T14:55:02;94167.50;;;11.32;60.04
20009;BME280;10165;42.662;23.260;2022-11-15T14:57:30;94164.34;;;10.95;61.00
20009;BME280;10165;42.662;23.260;2022-11-15T14:59:57;94166.94;;;10.91;61.36
20009;BME280;10165;42.662;23.260;2022-11-15T15:02:25;94167.09;;;10.83;61.33
20009;BME280;10165;42.662;23.260;2022-11-15T15:04:53;94166.31;;;10.82;61.63
20009;BME280;10165;42.662;23.260;2022-11-15T15:07:20;94164.50;;;10.86;61.53
20009;BME280;10165;42.662;23.260;2022-11-15T15:09:47;94158.19;;;10.63;62.06
20009;BME280;10165;42.662;23.260;2022-11-15T15:12:20;94153.03;;;10.70;62.06
20009;BME280;10165;42.662;23.260;2022-11-15T15:14:48;94164.25;;;10.76;61.75
20009;BME280;10165;42.662;23.260;2022-11-15T15:17:16;94154.31;;;10.61;62.42
20009;BME280;10165;42.662;23.260;2022-11-15T15:19:43;94148.22;;;10.76;62.30
20009;BME280;10165;42.662;23.260;2022-11-15T15:22:15;94152.97;;;10.82;61.86
20009;BME280;10165;42.662;23.260;2022-11-15T15:24:43;94144.69;;;11.03;61.28
20009;BME280;10165;42.662;23.260;2022-11-15T15:27:10;94147.53;;;11.10;61.06
20009;BME280;10165;42.662;23.260;2022-11-15T15:29:37;94148.56;;;11.21;60.63
20009;BME280;10165;42.662;23.260;2022-11-15T15:32:04;94144.31;;;11.20;60.63
20009;BME280;10165;42.662;23.260;2022-11-15T15:34:32;94144.41;;;11.24;60.34
20009;BME280;10165;42.662;23.260;2022-11-15T15:37:28;94142.34;;;10.86;60.91